Time;durP1;ratioP1;P1;durP2;ratioP2;P2;SDS_P1;SDS_P2;PMS_P1;PMS_P2;Temp;Humidity;BMP_temperature;BMP_pressure;BME280_temperature;BME280_humidity;BME280_pressure;Samples;Min_cycle;Max_cycle;Signal;HPM_P1;HPM_P2
2022/01/19 00:00:12;;;;;;;5.43;4.80;;;;;;;2.31;100.00;101936.09;5025367;28;20183;-47
2022/01/19 00:02:38;;;;;;;4.77;4.37;;;;;;;2.36;100.00;101932.09;5018764;28;20267;-46
2022/01/19 00:05:05;;;;;;;4.80;4.33;;;;;;;2.42;100.00;101935.84;5022035;28;20270;-47
2022/01/19 00:07:30;;;;;;;5.00;4.57;;;;;;;2.48;100.00;101940.41;5016292;28;20200;-46
2022/01/19 00:09:57;;;;;;;5.47;4.63;;;;;;;2.52;100.00;101931.19;5024744;28;20219;-46
2022/01/19 00:12:22;;;;;;;5.50;5.00;;;;;;;2.54;100.00;101919.38;5016133;28;20236;-46
2022/01/19 00:14:47;;;;;;;4.83;4.23;;;;;;;2.57;100.00;101907.63;5014563;28;20583;-46
2022/01/19 00:17:13;;;;;;;4.97;4.50;;;;;;;2.58;100.00;101896.59;5016668;28;20222;-46
2022/01/19 00:19:38;;;;;;;4.90;4.37;;;;;;;2.61;100.00;101895.00;5019923;28;20268;-46
2022/01/19 00:22:03;;;;;;;5.10;4.50;;;;;;;2.59;100.00;101890.69;5018820;28;20198;-46
2022/01/19 00:24:29;;;;;;;4.57;4.17;;;;;;;2.58;100.00;101886.38;5017044;28;20234;-46
2022/01/19 00:26:54;;;;;;;5.03;4.50;;;;;;;2.56;100.00;101890.56;5027653;28;20194;-46
2022/01/19 00:29:19;;;;;;;4.70;4.30;;;;;;;2.54;100.00;101881.94;5019014;28;20647;-47
2022/01/19 00:31:45;;;;;;;4.60;3.70;;;;;;;2.52;100.00;101883.53;5022219;28;20187;-46
2022/01/19 00:34:10;;;;;;;5.20;4.70;;;;;;;2.51;100.00;101892.00;5010419;28;20963;-46
2022/01/19 00:36:35;;;;;;;4.83;4.23;;;;;;;2.48;100.00;101898.66;5019028;28;20203;-46
2022/01/19 00:39:01;;;;;;;5.00;3.90;;;;;;;2.42;100.00;101905.19;5014995;28;20291;-46
2022/01/19 00:41:27;;;;;;;4.77;4.27;;;;;;;2.37;100.00;101905.75;5021193;28;20616;-46
2022/01/19 00:43:52;;;;;;;4.70;4.23;;;;;;;2.30;100.00;101899.47;5026594;28;20187;-46
2022/01/19 00:46:18;;;;;;;4.20;3.80;;;;;;;2.22;100.00;101893.97;5022715;28;20575;-46
2022/01/19 00:48:43;;;;;;;4.73;4.23;;;;;;;2.13;100.00;101891.81;5016611;28;20220;-46
2022/01/19 00:51:08;;;;;;;4.20;3.90;;;;;;;2.03;100.00;101878.47;5015179;28;20617;-46
2022/01/19 00:53:34;;;;;;;6.03;4.20;;;;;;;1.91;100.00;101877.06;5016958;28;20242;-46
2022/01/19 00:55:59;;;;;;;4.67;4.17;;;;;;;1.81;100.00;101872.28;5018694;28;20564;-46
2022/01/19 00:58:25;;;;;;;4.93;4.43;;;;;;;1.71;100.00;101876.00;5024469;28;20217;-46
2022/01/19 01:00:51;;;;;;;4.30;3.87;;;;;;;1.60;100.00;101866.88;5028973;28;20589;-46
2022/01/19 01:03:16;;;;;;;4.47;4.03;;;;;;;1.51;100.00;101877.50;5014695;28;20286;-46
2022/01/19 01:05:42;;;;;;;5.77;4.50;;;;;;;1.44;100.00;101868.63;5027006;28;20733;-46
2022/01/19 01:08:08;;;;;;;5.10;4.70;;;;;;;1.39;100.00;101869.16;5023212;28;20203;-46
2022/01/19 01:10:41;;;;;;;4.93;4.40;;;;;;;1.33;100.00;101862.97;5016899;28;20208;-45
2022/01/19 01:13:21;;;;;;;6.43;4.60;;;;;;;1.26;100.00;101868.50;5022062;28;20192;-45
2022/01/19 01:16:03;;;;;;;4.77;4.30;;;;;;;1.18;100.00;101857.88;5024324;28;20614;-45
2022/01/19 01:18:31;;;;;;;5.23;4.40;;;;;;;1.12;100.00;101839.72;5028351;28;20680;-46
2022/01/19 01:20:58;;;;;;;6.50;5.03;;;;;;;1.05;100.00;101841.06;5020608;28;20570;-46
2022/01/19 01:23:25;;;;;;;5.97;4.73;;;;;;;1.00;100.00;101831.38;5014238;28;20287;-45
2022/01/19 01:25:51;;;;;;;5.50;4.70;;;;;;;0.94;100.00;101824.28;5020660;28;20634;-48
2022/01/19 01:28:18;;;;;;;4.67;4.27;;;;;;;0.88;100.00;101821.41;5027863;28;20212;-45
2022/01/19 01:30:43;;;;;;;5.33;4.63;;;;;;;0.81;100.00;101817.63;5017970;28;20248;-46
2022/01/19 01:33:09;;;;;;;6.63;5.47;;;;;;;0.73;100.00;101803.56;5025866;28;20230;-48
2022/01/19 01:35:35;;;;;;;6.50;5.90;;;;;;;0.64;100.00;101809.03;5023282;28;20414;-47
2022/01/19 01:38:01;;;;;;;5.93;5.40;;;;;;;0.56;100.00;101823.03;5025553;28;20556;-47
2022/01/19 01:40:28;;;;;;;5.60;5.10;;;;;;;0.51;100.00;101832.94;5019153;28;20193;-46
2022/01/19 01:42:56;;;;;;;5.47;4.93;;;;;;;0.47;100.00;101836.09;5019083;28;20615;-46
2022/01/19 01:45:27;;;;;;;10.40;6.90;;;;;;;0.42;100.00;101840.94;5024736;28;20195;-46
2022/01/19 01:48:02;;;;;;;16.47;8.80;;;;;;;0.38;100.00;101831.34;5022640;28;20217;-46
2022/01/19 01:53:26;;;;;;;12.63;8.10;;;;;;;0.27;100.00;101823.09;5022499;28;20272;-46
2022/01/19 01:56:16;;;;;;;13.57;8.27;;;;;;;0.23;100.00;101808.41;5027042;28;20654;-46
2022/01/19 01:58:44;;;;;;;6.27;5.67;;;;;;;0.20;100.00;101787.91;5025623;28;20243;-46
2022/01/19 02:01:10;;;;;;;9.40;6.67;;;;;;;0.21;100.00;101760.75;5025297;28;20275;-46
2022/01/19 02:03:39;;;;;;;7.87;5.83;;;;;;;0.19;100.00;101734.31;5019849;28;20199;-46
2022/01/19 02:08:53;;;;;;;6.87;5.87;;;;;;;0.11;100.00;101719.50;5026505;28;20579;-46
2022/01/19 02:22:12;;;;;;;8.17;7.00;;;;;;;0.04;100.00;101688.53;5020289;28;20255;-46
2022/01/19 02:24:44;;;;;;;8.27;7.47;;;;;;;0.08;100.00;101682.78;5014447;28;20187;-45
2022/01/19 02:40:57;;;;;;;7.83;7.03;;;;;;;0.03;100.00;101644.34;5017958;28;20259;-46
2022/01/19 02:43:25;;;;;;;9.37;8.37;;;;;;;0.07;100.00;101637.78;5021728;28;20282;-47
2022/01/19 02:51:19;;;;;;;10.93;9.93;;;;;;;0.19;100.00;101622.28;5023264;28;20207;-45
2022/01/19 02:53:45;;;;;;;10.37;8.90;;;;;;;0.17;100.00;101614.59;5024723;28;20568;-47
2022/01/19 02:56:17;;;;;;;11.50;9.30;;;;;;;0.17;100.00;101612.03;5017996;28;20197;-47
2022/01/19 02:58:55;;;;;;;9.90;8.90;;;;;;;0.13;100.00;101613.56;5029365;28;20610;-47
2022/01/19 03:09:27;;;;;;;8.70;7.80;;;;;;;-0.20;100.00;101605.78;5015941;28;20207;-46
2022/01/19 03:11:54;;;;;;;9.03;7.90;;;;;;;-0.26;100.00;101599.47;5025926;28;20726;-46
2022/01/19 03:14:20;;;;;;;8.80;7.90;;;;;;;-0.29;100.00;101596.75;5025581;28;20199;-46
2022/01/19 03:16:46;;;;;;;8.93;8.03;;;;;;;-0.32;100.00;101595.78;5024934;28;20193;-45
2022/01/19 03:19:12;;;;;;;10.83;8.87;;;;;;;-0.32;100.00;101590.69;5019634;28;20225;-46
2022/01/19 03:21:39;;;;;;;10.33;9.33;;;;;;;-0.29;100.00;101591.66;5026554;28;20558;-46
2022/01/19 03:24:05;;;;;;;10.27;9.27;;;;;;;-0.28;100.00;101588.34;5019297;28;20200;-46
2022/01/19 03:26:31;;;;;;;10.13;9.07;;;;;;;-0.28;100.00;101591.75;5020553;28;20559;-45
2022/01/19 03:28:57;;;;;;;9.80;8.57;;;;;;;-0.33;100.00;101586.41;5019384;28;20216;-45
2022/01/19 03:31:22;;;;;;;10.47;9.30;;;;;;;-0.37;100.00;101576.84;5024628;28;20237;-45
2022/01/19 03:33:48;;;;;;;10.33;9.23;;;;;;;-0.39;100.00;101583.53;5026422;28;20200;-48
2022/01/19 03:36:13;;;;;;;9.47;8.50;;;;;;;-0.43;100.00;101586.69;5017404;28;20650;-47
2022/01/19 03:38:39;;;;;;;9.90;8.90;;;;;;;-0.49;100.00;101586.31;5024087;28;20665;-47
2022/01/19 03:41:04;;;;;;;8.63;7.83;;;;;;;-0.55;100.00;101583.44;5023336;28;20188;-47
2022/01/19 03:43:30;;;;;;;11.83;8.90;;;;;;;-0.63;100.00;101591.50;5021458;28;20207;-46
2022/01/19 03:45:58;;;;;;;8.50;7.60;;;;;;;-0.67;100.00;101588.69;5020134;28;20328;-46
2022/01/19 03:50:53;;;;;;;9.03;8.10;;;;;;;-0.76;100.00;101578.88;5027815;28;20188;-47
2022/01/19 03:53:19;;;;;;;8.30;7.50;;;;;;;-0.80;100.00;101572.72;5022028;28;20248;-47
2022/01/19 03:55:44;;;;;;;8.83;7.93;;;;;;;-0.81;100.00;101581.16;5022273;28;20288;-47
2022/01/19 03:58:10;;;;;;;8.20;7.40;;;;;;;-0.81;100.00;101577.72;5018046;28;20212;-45
2022/01/19 04:00:41;;;;;;;8.50;7.57;;;;;;;-0.83;100.00;101574.22;5017967;28;20285;-46
2022/01/19 04:03:07;;;;;;;8.37;7.53;;;;;;;-0.85;100.00;101571.59;5023649;28;20649;-46
2022/01/19 04:08:16;;;;;;;8.33;7.57;;;;;;;-0.88;100.00;101555.28;5031701;28;20273;-45
2022/01/19 04:10:42;;;;;;;8.47;7.23;;;;;;;-0.90;100.00;101549.22;5015301;28;20664;-46
2022/01/19 04:13:11;;;;;;;8.53;7.60;;;;;;;-0.93;100.00;101548.25;5024453;28;20247;-45
2022/01/19 04:15:37;;;;;;;9.07;8.17;;;;;;;-0.94;100.00;101543.09;5017468;28;20205;-45
2022/01/19 04:18:03;;;;;;;8.33;7.43;;;;;;;-0.94;100.00;101556.66;5017487;28;20217;-45
2022/01/19 04:20:29;;;;;;;9.53;8.63;;;;;;;-0.95;100.00;101539.66;5022887;28;20562;-45
2022/01/19 04:22:57;;;;;;;8.97;8.07;;;;;;;-0.96;100.00;101537.91;5024722;28;20696;-45
2022/01/19 04:25:22;;;;;;;9.93;8.40;;;;;;;-0.96;100.00;101537.91;5024113;28;20281;-45
2022/01/19 04:27:47;;;;;;;9.67;8.67;;;;;;;-0.98;100.00;101534.41;5019183;28;20216;-47
2022/01/19 04:30:15;;;;;;;10.53;9.20;;;;;;;-1.00;100.00;101537.66;5019059;28;20216;-45
2022/01/19 04:33:03;;;;;;;9.87;8.90;;;;;;;-1.04;100.00;101528.09;5017589;28;20192;-47
2022/01/19 04:35:33;;;;;;;9.03;8.07;;;;;;;-1.10;100.00;101532.03;5019113;28;20556;-45
2022/01/19 05:05:06;;;;;;;15.37;13.27;;;;;;;-1.24;100.00;101520.19;4979811;28;20209;-45
2022/01/19 05:07:41;;;;;;;16.77;14.47;;;;;;;-1.25;100.00;101528.59;5016171;28;20943;-45
2022/01/19 05:15:36;;;;;;;15.43;13.80;;;;;;;-1.23;100.00;101511.78;5017665;28;20270;-45
2022/01/19 05:18:02;;;;;;;13.97;12.57;;;;;;;-1.23;100.00;101520.28;5025427;28;20219;-48
2022/01/19 05:20:28;;;;;;;13.60;12.30;;;;;;;-1.23;100.00;101517.72;5018921;28;20188;-48
2022/01/19 05:22:54;;;;;;;13.77;12.37;;;;;;;-1.24;100.00;101520.19;5019552;28;20661;-45
2022/01/19 05:25:19;;;;;;;14.50;12.77;;;;;;;-1.25;100.00;101519.31;5023728;28;20195;-47
2022/01/19 05:27:45;;;;;;;14.93;13.43;;;;;;;-1.22;100.00;101528.78;5022651;28;20700;-47
2022/01/19 05:30:11;;;;;;;15.70;14.10;;;;;;;-1.21;100.00;101527.09;5022622;28;20203;-47
2022/01/19 05:32:36;;;;;;;17.67;14.83;;;;;;;-1.19;100.00;101535.69;5034338;28;20196;-47
2022/01/19 05:35:02;;;;;;;15.53;13.97;;;;;;;-1.18;100.00;101523.06;5032525;28;20247;-46
2022/01/19 05:37:27;;;;;;;15.07;13.50;;;;;;;-1.18;100.00;101527.28;5031860;28;20187;-46
2022/01/19 05:39:53;;;;;;;16.20;14.50;;;;;;;-1.21;100.00;101519.50;5031888;28;20228;-45
2022/01/19 05:42:18;;;;;;;16.00;14.37;;;;;;;-1.22;100.00;101521.16;5029960;28;20189;-46
2022/01/19 05:44:45;;;;;;;15.37;13.77;;;;;;;-1.25;100.00;101524.38;5027097;28;20219;-47
2022/01/19 05:47:13;;;;;;;16.53;13.97;;;;;;;-1.28;100.00;101529.28;5022070;28;20192;-46
2022/01/19 05:49:39;;;;;;;15.13;13.63;;;;;;;-1.31;100.00;101521.50;5019721;28;20290;-46
2022/01/19 05:52:07;;;;;;;14.47;12.50;;;;;;;-1.33;100.00;101529.78;5017522;28;22469;-45
2022/01/19 05:54:33;;;;;;;15.17;13.57;;;;;;;-1.38;100.00;101530.41;5018148;28;20483;-46
2022/01/19 05:56:59;;;;;;;13.83;12.43;;;;;;;-1.41;100.00;101524.25;5016003;28;20281;-44
2022/01/19 05:59:25;;;;;;;13.90;11.50;;;;;;;-1.44;100.00;101535.13;5026217;28;20646;-46
2022/01/19 06:01:50;;;;;;;15.30;12.10;;;;;;;-1.47;100.00;101534.06;5028398;28;20276;-46
2022/01/19 06:04:16;;;;;;;13.60;11.77;;;;;;;-1.51;100.00;101530.44;5031628;28;20188;-46
2022/01/19 06:06:41;;;;;;;13.20;11.90;;;;;;;-1.54;100.00;101528.59;5020464;28;20189;-46
2022/01/19 06:09:22;;;;;;;13.43;12.13;;;;;;;-1.56;100.00;101516.59;5026786;28;20220;-46
2022/01/19 06:11:48;;;;;;;12.93;11.63;;;;;;;-1.59;100.00;101518.97;5024787;28;20704;-46
2022/01/19 06:14:13;;;;;;;12.67;11.30;;;;;;;-1.60;100.00;101519.75;5019443;28;20279;-46
2022/01/19 06:16:39;;;;;;;12.93;11.63;;;;;;;-1.62;100.00;101523.84;5018485;28;20223;-46
2022/01/19 06:19:05;;;;;;;14.17;11.27;;;;;;;-1.63;100.00;101524.63;5026314;28;20217;-46
2022/01/19 06:21:31;;;;;;;13.80;11.97;;;;;;;-1.64;100.00;101527.94;5018249;28;20574;-46
2022/01/19 06:23:56;;;;;;;14.23;12.83;;;;;;;-1.67;100.00;101518.50;5022670;28;20243;-46
2022/01/19 06:26:22;;;;;;;14.27;12.50;;;;;;;-1.70;100.00;101518.31;5022730;28;20184;-45
2022/01/19 06:28:47;;;;;;;13.03;11.63;;;;;;;-1.72;100.00;101519.88;5022218;28;20527;-46
2022/01/19 06:31:12;;;;;;;14.00;11.70;;;;;;;-1.76;100.00;101520.47;5025347;28;20198;-46
2022/01/19 06:33:38;;;;;;;12.13;10.93;;;;;;;-1.78;100.00;101517.84;5022689;28;20322;-46
2022/01/19 06:36:04;;;;;;;13.13;11.73;;;;;;;-1.78;100.00;101520.38;5023243;28;20188;-45
2022/01/19 06:38:29;;;;;;;12.10;10.87;;;;;;;-1.79;100.00;101513.53;5030799;28;20203;-45
2022/01/19 06:40:55;;;;;;;12.40;11.17;;;;;;;-1.80;100.00;101521.06;5028723;28;20192;-45
2022/01/19 06:43:20;;;;;;;12.50;10.97;;;;;;;-1.81;100.00;101509.16;5028422;28;20199;-45
2022/01/19 06:45:46;;;;;;;13.50;11.00;;;;;;;-1.82;100.00;101504.88;5024346;28;20266;-45
2022/01/19 06:48:11;;;;;;;12.33;11.07;;;;;;;-1.82;100.00;101507.41;5024623;28;20211;-48
2022/01/19 06:50:36;;;;;;;10.90;9.80;;;;;;;-1.85;100.00;101506.44;5006625;28;20255;-46
2022/01/19 06:53:02;;;;;;;12.10;10.80;;;;;;;-1.84;100.00;101499.72;5030969;28;20189;-47
2022/01/19 06:55:27;;;;;;;11.77;10.57;;;;;;;-1.86;100.00;101506.34;5030412;28;20190;-46
2022/01/19 06:57:53;;;;;;;11.57;10.37;;;;;;;-1.86;100.00;101504.69;5030511;28;20216;-46
2022/01/19 07:00:18;;;;;;;12.13;10.53;;;;;;;-1.88;100.00;101502.84;5028778;28;20187;-46
2022/01/19 07:02:44;;;;;;;11.10;9.90;;;;;;;-1.88;100.00;101495.22;5031019;28;20657;-46
2022/01/19 07:05:10;;;;;;;11.33;9.90;;;;;;;-1.89;100.00;101489.25;5029739;28;20648;-46
2022/01/19 07:07:37;;;;;;;11.50;10.30;;;;;;;-1.89;100.00;101489.25;5029614;28;20196;-47
2022/01/19 07:10:07;;;;;;;10.97;9.83;;;;;;;-1.90;100.00;101485.00;5021805;28;20227;-46
2022/01/19 07:12:33;;;;;;;10.57;9.37;;;;;;;-1.89;100.00;101486.72;5019574;28;20199;-46
2022/01/19 07:14:58;;;;;;;11.43;9.97;;;;;;;-1.87;100.00;101490.22;5029250;28;20187;-45
2022/01/19 07:17:24;;;;;;;11.20;9.97;;;;;;;-1.86;100.00;101484.38;5017402;28;20203;-46
2022/01/19 07:19:49;;;;;;;10.87;9.80;;;;;;;-1.86;100.00;101481.84;5022937;28;20191;-45
2022/01/19 07:22:16;;;;;;;11.97;10.07;;;;;;;-1.87;100.00;101476.69;5017931;28;20196;-45
2022/01/19 07:24:42;;;;;;;11.60;10.10;;;;;;;-1.85;100.00;101482.72;5017410;28;20268;-48
2022/01/19 07:27:08;;;;;;;11.10;9.70;;;;;;;-1.84;100.00;101481.94;5023085;28;20197;-45
2022/01/19 07:29:33;;;;;;;12.63;10.63;;;;;;;-1.82;100.00;101493.06;5022116;28;20276;-47
2022/01/19 07:31:59;;;;;;;13.17;11.03;;;;;;;-1.80;100.00;101493.16;5031411;28;20199;-47
2022/01/19 07:34:25;;;;;;;11.27;10.17;;;;;;;-1.78;100.00;101494.13;5021588;28;20177;-44
2022/01/19 07:36:55;;;;;;;13.87;11.70;;;;;;;-1.76;100.00;101500.19;5022574;28;20227;-51
2022/01/19 07:39:21;;;;;;;14.13;12.53;;;;;;;-1.75;100.00;101484.16;5024270;28;20219;-47
2022/01/19 07:41:47;;;;;;;13.83;12.43;;;;;;;-1.72;100.00;101485.22;5029343;28;20185;-47
2022/01/19 07:44:12;;;;;;;14.43;12.87;;;;;;;-1.70;100.00;101486.19;5024933;28;20660;-47
2022/01/19 07:46:38;;;;;;;14.27;12.53;;;;;;;-1.63;100.00;101486.53;5026862;28;20712;-48
2022/01/19 07:49:03;;;;;;;14.63;13.10;;;;;;;-1.56;100.00;101478.53;5034612;28;20252;-46
2022/01/19 07:51:28;;;;;;;16.10;14.10;;;;;;;-1.49;100.00;101474.69;5027893;28;20246;-46
2022/01/19 07:53:54;;;;;;;14.73;13.17;;;;;;;-1.43;100.00;101473.38;5028722;28;20197;-47
2022/01/19 07:56:19;;;;;;;13.70;12.30;;;;;;;-1.34;100.00;101477.25;5029812;28;20675;-46
2022/01/19 07:58:45;;;;;;;15.80;12.90;;;;;;;-1.27;100.00;101476.81;5029376;28;20710;-45
2022/01/19 08:01:10;;;;;;;13.80;12.23;;;;;;;-1.18;100.00;101477.34;5030363;28;20246;-45
2022/01/19 08:03:36;;;;;;;14.57;12.20;;;;;;;-1.10;100.00;101480.34;5029824;28;20180;-45
2022/01/19 08:06:01;;;;;;;18.30;12.93;;;;;;;-1.00;100.00;101477.56;5026949;28;20185;-45
2022/01/19 08:08:26;;;;;;;16.40;12.33;;;;;;;-0.92;100.00;101481.41;5028387;28;20216;-45
2022/01/19 08:10:52;;;;;;;16.47;14.00;;;;;;;-0.84;100.00;101480.97;5020389;28;20270;-47
2022/01/19 08:13:18;;;;;;;17.47;13.40;;;;;;;-0.77;100.00;101476.31;5018923;28;20223;-46
2022/01/19 08:15:44;;;;;;;20.13;16.50;;;;;;;-0.67;100.00;101471.75;5024810;28;20926;-46
2022/01/19 08:18:09;;;;;;;17.67;14.87;;;;;;;-0.59;100.00;101475.56;5019172;28;20291;-46
2022/01/19 08:20:35;;;;;;;15.67;14.07;;;;;;;-0.52;100.00;101466.63;5021269;28;20597;-46
2022/01/19 08:23:00;;;;;;;17.10;13.83;;;;;;;-0.45;100.00;101463.63;5025404;28;20196;-46
2022/01/19 08:25:26;;;;;;;18.23;14.13;;;;;;;-0.38;100.00;101470.78;5018882;28;20293;-46
2022/01/19 08:27:51;;;;;;;15.93;12.83;;;;;;;-0.31;100.00;101475.44;5020459;28;20799;-46
2022/01/19 08:30:17;;;;;;;14.50;13.00;;;;;;;-0.25;100.00;101479.13;5018730;28;20686;-47
2022/01/19 08:32:43;;;;;;;14.37;12.70;;;;;;;-0.19;100.00;101482.88;5020828;28;20466;-47
2022/01/19 08:35:09;;;;;;;17.50;14.53;;;;;;;-0.12;100.00;101481.53;5021243;28;20553;-46
2022/01/19 08:37:35;;;;;;;19.87;16.27;;;;;;;-0.06;100.00;101484.38;5023576;28;20226;-46
2022/01/19 08:40:01;;;;;;;23.23;18.27;;;;;;;0.02;100.00;101483.94;5016434;28;20281;-46
2022/01/19 08:42:28;;;;;;;20.57;16.80;;;;;;;0.07;100.00;101485.94;5023249;28;20201;-46
2022/01/19 08:44:54;;;;;;;18.03;15.10;;;;;;;0.14;100.00;101489.66;5020073;28;20196;-46
2022/01/19 08:47:20;;;;;;;17.67;15.83;;;;;;;0.21;100.00;101490.88;5020422;28;20239;-47
2022/01/19 08:49:46;;;;;;;16.80;15.00;;;;;;;0.27;100.00;101486.97;5022246;28;20242;-44
2022/01/19 08:52:11;;;;;;;16.17;14.23;;;;;;;0.34;100.00;101492.41;5026489;28;20286;-45
2022/01/19 08:54:37;;;;;;;17.80;15.30;;;;;;;0.40;100.00;101488.50;5028831;28;20199;-45
2022/01/19 08:57:04;;;;;;;16.23;14.13;;;;;;;0.46;100.00;101493.03;5029604;28;20621;-47
2022/01/19 08:59:30;;;;;;;14.47;12.80;;;;;;;0.50;100.00;101489.84;5028389;28;20214;-47
2022/01/19 09:01:56;;;;;;;13.33;12.00;;;;;;;0.56;100.00;101482.50;5029080;28;20262;-46
2022/01/19 09:04:21;;;;;;;13.60;12.23;;;;;;;0.62;100.00;101486.19;5028415;28;20723;-46
2022/01/19 09:06:47;;;;;;;14.37;12.80;;;;;;;0.66;100.00;101485.53;5021055;28;20192;-47
2022/01/19 09:09:12;;;;;;;12.53;11.23;;;;;;;0.70;100.00;101492.53;5020007;28;20219;-47
2022/01/19 09:11:38;;;;;;;14.07;12.30;;;;;;;0.75;100.00;101501.28;5020736;28;20218;-47
2022/01/19 09:14:06;;;;;;;13.63;12.23;;;;;;;0.79;100.00;101505.75;5036660;28;20201;-47
2022/01/19 09:16:33;;;;;;;12.20;10.93;;;;;;;0.85;100.00;101500.94;5025334;28;20267;-47
2022/01/19 09:18:59;;;;;;;13.93;11.97;;;;;;;0.90;100.00;101491.88;5026986;28;20592;-45
2022/01/19 09:21:24;;;;;;;12.23;10.93;;;;;;;0.95;100.00;101488.69;5027670;28;20195;-47
2022/01/19 09:23:50;;;;;;;13.50;11.93;;;;;;;1.01;100.00;101483.88;5028641;28;20197;-46
2022/01/19 09:26:15;;;;;;;13.33;11.67;;;;;;;1.09;100.00;101487.69;5023946;28;20196;-46
2022/01/19 09:28:40;;;;;;;14.47;12.97;;;;;;;1.15;100.00;101482.00;5021853;28;20302;-46
2022/01/19 09:31:11;;;;;;;13.67;12.10;;;;;;;1.20;100.00;101485.66;5027592;28;20196;-46
2022/01/19 09:33:37;;;;;;;12.80;11.50;;;;;;;1.27;100.00;101479.19;5032200;28;20183;-46
2022/01/19 09:38:31;;;;;;;13.30;11.90;;;;;;;1.39;100.00;101472.13;5031768;28;20212;-46
2022/01/19 09:40:57;;;;;;;13.47;11.93;;;;;;;1.44;100.00;101472.34;5023765;28;20249;-46
2022/01/19 09:43:23;;;;;;;14.20;12.80;;;;;;;1.48;100.00;101471.69;5029558;28;20195;-47
2022/01/19 09:45:56;;;;;;;15.37;12.70;;;;;;;1.53;100.00;101475.31;5023199;28;20226;-47
2022/01/19 09:48:22;;;;;;;13.70;12.17;;;;;;;1.58;100.00;101466.19;5039113;28;20242;-44
2022/01/19 09:50:47;;;;;;;13.60;12.07;;;;;;;1.64;100.00;101469.06;5029512;28;20215;-47
2022/01/19 09:53:13;;;;;;;12.33;11.13;;;;;;;1.71;100.00;101467.66;5026722;28;20656;-45
2022/01/19 09:55:42;;;;;;;14.47;12.93;;;;;;;1.79;100.00;101460.34;5031735;28;20278;-46
2022/01/19 09:58:08;;;;;;;14.23;12.87;;;;;;;1.83;100.00;101458.00;5020911;28;20242;-47
2022/01/19 10:00:34;;;;;;;15.20;13.70;;;;;;;1.88;100.00;101449.69;5031057;28;20678;-46
2022/01/19 10:03:15;;;;;;;16.30;13.60;;;;;;;1.92;100.00;101449.00;5031077;28;20205;-46
2022/01/19 10:05:55;;;;;;;16.87;14.40;;;;;;;1.96;100.00;101438.13;5031907;28;20691;-46
2022/01/19 10:08:45;;;;;;;17.13;15.43;;;;;;;2.02;100.00;101429.88;5031737;28;20199;-45
2022/01/19 10:17:04;;;;;;;18.30;15.33;;;;;;;2.06;100.00;101399.41;5031851;28;20733;-46
2022/01/19 10:19:36;;;;;;;17.13;15.00;;;;;;;2.09;100.00;101401.25;5030875;28;20203;-46
2022/01/19 10:22:13;;;;;;;15.80;14.03;;;;;;;2.11;100.00;101389.44;5043526;28;20463;-46
2022/01/19 10:24:41;;;;;;;14.10;12.63;;;;;;;2.13;100.00;101395.44;5035807;28;20200;-48
2022/01/19 10:27:37;;;;;;;15.70;14.03;;;;;;;2.19;100.00;101389.75;5025134;28;20179;-48
2022/01/19 10:30:02;;;;;;;16.87;14.67;;;;;;;2.23;100.00;101395.06;5016784;28;20216;-47
2022/01/19 10:32:30;;;;;;;16.83;14.50;;;;;;;2.30;100.00;101388.53;5030668;28;20274;-47
2022/01/19 10:34:56;;;;;;;17.17;14.17;;;;;;;2.34;100.00;101384.41;5031099;28;20190;-47
2022/01/19 10:37:27;;;;;;;16.90;13.17;;;;;;;2.48;100.00;101378.22;5030811;28;20191;-47
2022/01/19 10:39:57;;;;;;;17.50;14.60;;;;;;;2.62;100.00;101376.25;5018961;28;20209;-47
2022/01/19 10:42:26;;;;;;;17.93;13.70;;;;;;;2.69;100.00;101373.09;5025813;28;20188;-47
2022/01/19 10:44:52;;;;;;;15.60;14.03;;;;;;;2.79;100.00;101364.13;5019954;28;20191;-47
2022/01/19 10:47:36;;;;;;;18.40;15.70;;;;;;;2.87;100.00;101360.19;5024529;28;20477;-47
2022/01/19 10:50:01;;;;;;;16.97;15.17;;;;;;;2.95;100.00;101355.38;5015223;28;20211;-47
2022/01/19 10:52:37;;;;;;;17.90;15.53;;;;;;;2.98;100.00;101346.97;5016392;28;20547;-47
2022/01/19 10:55:06;;;;;;;18.57;15.47;;;;;;;3.01;100.00;101341.97;5028640;28;20496;-47
2022/01/19 10:57:33;;;;;;;21.00;15.40;;;;;;;3.04;100.00;101337.84;5020818;28;20199;-46
2022/01/19 11:00:17;;;;;;;18.90;15.67;;;;;;;3.12;100.00;101339.81;5020322;28;20188;-47
2022/01/19 11:02:44;;;;;;;19.50;16.90;;;;;;;3.18;100.00;101342.63;5026337;28;20341;-47
2022/01/19 11:05:10;;;;;;;17.67;15.37;;;;;;;3.24;100.00;101340.31;5022761;28;20185;-47
2022/01/19 11:07:36;;;;;;;18.13;16.17;;;;;;;3.30;100.00;101340.53;5029690;28;20651;-47
2022/01/19 11:10:16;;;;;;;;;;;;;;;;;;;;;
2022/01/19 11:12:44;;;;;;;17.20;15.40;;;;;;;3.43;100.00;101333.31;5027353;28;20191;-47
2022/01/19 11:15:11;;;;;;;16.80;14.73;;;;;;;3.49;100.00;101325.88;5031014;28;20172;-47
2022/01/19 11:17:37;;;;;;;15.43;13.73;;;;;;;3.57;100.00;101333.81;5029317;28;20631;-47
2022/01/19 11:20:08;;;;;;;17.20;15.23;;;;;;;3.64;100.00;101322.97;5029527;28;20207;-47
2022/01/19 11:22:59;;;;;;;17.30;15.40;;;;;;;3.71;100.00;101335.19;5024943;28;20643;-47
2022/01/19 11:25:39;;;;;;;17.73;14.77;;;;;;;3.80;100.00;101329.53;5015611;28;20641;-47
2022/01/19 11:28:05;;;;;;;17.13;15.43;;;;;;;3.87;100.00;101320.38;5018327;28;20230;-47
2022/01/19 11:30:33;;;;;;;17.57;14.90;;;;;;;3.91;100.00;101325.66;5028436;28;20238;-47
2022/01/19 11:33:16;;;;;;;17.00;14.50;;;;;;;3.99;100.00;101310.56;5029674;28;20614;-47
2022/01/19 11:35:47;;;;;;;16.20;14.60;;;;;;;4.04;100.00;101306.47;5031655;28;20188;-47
2022/01/19 11:38:40;;;;;;;16.57;14.77;;;;;;;4.12;100.00;101294.78;5029684;28;20210;-47
2022/01/19 11:41:08;;;;;;;16.33;14.50;;;;;;;4.23;100.00;101292.59;5027979;28;20234;-47
2022/01/19 11:43:35;;;;;;;16.53;14.83;;;;;;;4.34;100.00;101289.50;5028038;28;20188;-46
2022/01/19 11:46:03;;;;;;;16.07;14.37;;;;;;;4.49;100.00;101292.56;5029176;28;20192;-46
2022/01/19 11:48:35;;;;;;;16.10;14.40;;;;;;;4.61;100.00;101276.72;5029881;28;20695;-47
2022/01/19 11:51:30;;;;;;;15.47;13.50;;;;;;;4.78;100.00;101294.31;5027061;28;20310;-46
2022/01/19 11:54:17;;;;;;;16.37;14.57;;;;;;;4.95;100.00;101285.44;5020004;28;20752;-46
2022/01/19 11:57:04;;;;;;;15.47;13.87;;;;;;;5.17;99.29;101281.81;5026761;28;20195;-46
2022/01/19 11:59:45;;;;;;;16.47;14.77;;;;;;;5.49;98.64;101270.72;5025792;28;20671;-46
2022/01/19 12:02:28;;;;;;;16.30;14.53;;;;;;;5.81;97.58;101263.03;5029633;28;20460;-46
2022/01/19 12:05:07;;;;;;;16.00;13.80;;;;;;;6.06;96.42;101264.56;5029893;28;20198;-46
2022/01/19 12:07:35;;;;;;;14.87;13.33;;;;;;;6.25;95.15;101254.75;5029549;28;20245;-46
2022/01/19 12:10:03;;;;;;;19.10;14.23;;;;;;;6.36;94.66;101255.88;5029037;28;20204;-46
2022/01/19 12:12:32;;;;;;;15.73;13.47;;;;;;;6.45;94.59;101250.06;5022138;28;20196;-46
2022/01/19 12:14:58;;;;;;;15.20;13.67;;;;;;;6.58;94.48;101248.63;5029420;28;20180;-47
2022/01/19 12:17:54;;;;;;;15.03;13.47;;;;;;;6.59;94.24;101252.09;5029214;28;20690;-46
2022/01/19 12:20:52;;;;;;;14.80;13.30;;;;;;;6.54;93.47;101236.56;5024954;28;20385;-46
2022/01/19 12:23:44;;;;;;;14.17;12.67;;;;;;;6.40;94.19;101236.22;5027385;28;20182;-46
2022/01/19 12:26:10;;;;;;;15.37;13.77;;;;;;;6.33;92.73;101237.78;5023255;28;20684;-46
2022/01/19 12:28:50;;;;;;;15.07;13.53;;;;;;;6.17;93.14;101236.56;5027486;28;20698;-46
2022/01/19 12:31:25;;;;;;;15.67;14.03;;;;;;;6.01;93.43;101232.72;5027983;28;20251;-46
2022/01/19 12:34:02;;;;;;;15.37;13.77;;;;;;;5.89;94.52;101222.13;5029229;28;20180;-46
2022/01/19 12:36:43;;;;;;;14.03;12.60;;;;;;;5.85;94.60;101212.56;5030049;28;20185;-46
2022/01/19 12:39:28;;;;;;;15.77;14.07;;;;;;;5.82;94.71;101210.81;5026427;28;20199;-51
2022/01/19 12:41:59;;;;;;;14.60;13.10;;;;;;;5.82;94.86;101203.09;5021711;28;20197;-46
2022/01/19 12:44:51;;;;;;;15.60;13.50;;;;;;;5.74;94.66;101207.19;5020802;28;20192;-46
2022/01/19 12:47:29;;;;;;;16.43;13.93;;;;;;;5.69;95.16;101203.63;5025745;28;20226;-46